Cleveland, TN (37320)

8:08 PM EDT on September 03, 2015 (GMT -0400)
Johnson Blvd | | Change Station
CLOSE
Current Station
Personal Weather Station
Location: Cleveland, TN
Elevation: 1004 ft
Nearby Weather Stations

Elev 1004 ft 35.15 °N, 84.86 °W | Updated 1 minute ago

Partly Cloudy
Partly Cloudy
83.6 °F
Feels Like 85 °F
N
0.0
Wind Variable Wind from ENE
Gusts 7.0 mph

Today
High -- | Low -- °F
--% Chance of Precip.
Yesterday
High -- | Low -- °F
Precip. -- in
7:13 AM 8:03 PM
Waning Gibbous, 65% visible
Pressure 29.92 in
Visibility 10.0 miles
Clouds Mostly Cloudy 11000 ft
Mostly Cloudy 25000 ft
Heat Index 85 °F
Dew Point 64 °F
Humidity 51%
Rainfall 0.00 in
Snow Depth Not available.
UV 0 out of 12
Pollen 9.70 out of 12
Air Quality Not available.
Flu Activity Not available.
METAR KCHA 032353Z 33004KT 10SM BKN110 BKN250 29/20 A2994 RMK AO2 SLP130 T02890200 10333 20289 56003
Pressure 29.92 in
Visibility 10.0 miles
Clouds Mostly Cloudy 11000 ft
Mostly Cloudy 25000 ft
Heat Index 85 °F
Dew Point 64 °F
Humidity 51%
Rainfall 0.00 in
Snow Depth Not available.
UV 0 out of 12
Pollen 9.70 out of 12
Air Quality Not available.
Flu Activity Not available.
METAR KCHA 032353Z 33004KT 10SM BKN110 BKN250 29/20 A2994 RMK AO2 SLP130 T02890200 10333 20289 56003

10-Day Weather Forecast

×

Almanac

Astronomy

Sep. 03, 2015 Rise Set
Actual Time
Civil Twilight
Nautical Twilight
Astronomical Twilight
Moon
Length of Visible Light
Length of Day
Tomorrow will be .
, % of the Moon is Illuminated

Today's Extremes

State Highs State Lows

Community

WunderPhotos

Upload Photos

1,852,069 photos uploaded!

WunderBlogs® & News

Nearby

Air Quality

  Air Quality AQ Index Pollutant
Not available.

Snow Depth

Station Depth Elevation

Earthquake Activity

City Distance Mag. Time & Date
Minimum magnitude displayed is 2.5.

Coastal Water Temperatures

Place Temperature

Stations

Nearby Weather Stations

Station Location Temp. Windchill Dew Point Humidity Wind Precip. Elev Updated Type